sensor_id;sensor_type;location;lat;lon;timestamp;P1;durP1;ratioP1;P2;durP2;ratioP2
13891;SDS011;7016;48.172;8.058;2023-07-20T00:01:24;5.65;;;3.13;;
13891;SDS011;7016;48.172;8.058;2023-07-20T00:03:49;5.13;;;3.17;;
13891;SDS011;7016;48.172;8.058;2023-07-20T00:06:19;6.80;;;3.25;;
13891;SDS011;7016;48.172;8.058;2023-07-20T00:08:46;7.88;;;3.58;;
13891;SDS011;7016;48.172;8.058;2023-07-20T00:11:11;9.90;;;3.78;;
13891;SDS011;7016;48.172;8.058;2023-07-20T00:13:38;11.95;;;3.40;;
13891;SDS011;7016;48.172;8.058;2023-07-20T00:16:04;7.20;;;3.33;;
13891;SDS011;7016;48.172;8.058;2023-07-20T00:18:30;7.88;;;3.33;;
13891;SDS011;7016;48.172;8.058;2023-07-20T00:20:56;8.50;;;3.90;;
13891;SDS011;7016;48.172;8.058;2023-07-20T00:23:21;5.20;;;3.10;;
13891;SDS011;7016;48.172;8.058;2023-07-20T00:25:48;6.03;;;3.20;;
13891;SDS011;7016;48.172;8.058;2023-07-20T00:28:14;4.15;;;3.00;;
13891;SDS011;7016;48.172;8.058;2023-07-20T00:30:39;6.60;;;3.28;;
13891;SDS011;7016;48.172;8.058;2023-07-20T00:33:06;13.95;;;4.00;;
13891;SDS011;7016;48.172;8.058;2023-07-20T00:35:36;5.80;;;3.03;;
13891;SDS011;7016;48.172;8.058;2023-07-20T00:38:03;6.65;;;3.03;;
13891;SDS011;7016;48.172;8.058;2023-07-20T00:40:29;5.22;;;3.03;;
13891;SDS011;7016;48.172;8.058;2023-07-20T00:43:01;7.57;;;3.47;;
13891;SDS011;7016;48.172;8.058;2023-07-20T00:45:27;7.75;;;3.22;;
13891;SDS011;7016;48.172;8.058;2023-07-20T00:47:53;7.85;;;3.38;;
13891;SDS011;7016;48.172;8.058;2023-07-20T00:50:19;6.95;;;3.78;;
13891;SDS011;7016;48.172;8.058;2023-07-20T00:52:44;7.32;;;3.28;;
13891;SDS011;7016;48.172;8.058;2023-07-20T00:55:10;5.93;;;3.42;;
13891;SDS011;7016;48.172;8.058;2023-07-20T00:57:36;5.05;;;2.63;;
13891;SDS011;7016;48.172;8.058;2023-07-20T01:00:02;4.57;;;3.00;;
13891;SDS011;7016;48.172;8.058;2023-07-20T01:02:28;11.70;;;3.20;;
13891;SDS011;7016;48.172;8.058;2023-07-20T01:04:53;6.80;;;2.67;;
13891;SDS011;7016;48.172;8.058;2023-07-20T01:07:31;7.13;;;3.10;;
13891;SDS011;7016;48.172;8.058;2023-07-20T01:10:03;7.03;;;3.47;;
13891;SDS011;7016;48.172;8.058;2023-07-20T01:15:07;11.00;;;3.55;;
13891;SDS011;7016;48.172;8.058;2023-07-20T01:17:33;8.45;;;3.08;;
13891;SDS011;7016;48.172;8.058;2023-07-20T01:19:59;6.07;;;3.42;;
13891;SDS011;7016;48.172;8.058;2023-07-20T01:28:24;7.68;;;2.90;;
13891;SDS011;7016;48.172;8.058;2023-07-20T01:31:18;6.30;;;3.28;;
13891;SDS011;7016;48.172;8.058;2023-07-20T01:33:50;4.60;;;3.03;;
13891;SDS011;7016;48.172;8.058;2023-07-20T01:36:19;5.70;;;3.25;;
13891;SDS011;7016;48.172;8.058;2023-07-20T01:38:46;8.88;;;3.42;;
13891;SDS011;7016;48.172;8.058;2023-07-20T01:41:12;10.18;;;3.20;;
13891;SDS011;7016;48.172;8.058;2023-07-20T01:43:39;5.93;;;3.22;;
13891;SDS011;7016;48.172;8.058;2023-07-20T01:46:05;6.20;;;3.70;;
13891;SDS011;7016;48.172;8.058;2023-07-20T01:48:31;7.25;;;3.55;;
13891;SDS011;7016;48.172;8.058;2023-07-20T01:50:57;7.10;;;3.22;;
13891;SDS011;7016;48.172;8.058;2023-07-20T01:53:22;5.15;;;3.50;;
13891;SDS011;7016;48.172;8.058;2023-07-20T01:55:49;6.75;;;3.47;;
13891;SDS011;7016;48.172;8.058;2023-07-20T01:58:17;7.25;;;3.20;;
13891;SDS011;7016;48.172;8.058;2023-07-20T02:00:42;7.38;;;3.17;;
13891;SDS011;7016;48.172;8.058;2023-07-20T02:03:08;9.40;;;3.50;;
13891;SDS011;7016;48.172;8.058;2023-07-20T02:05:34;5.63;;;3.05;;
13891;SDS011;7016;48.172;8.058;2023-07-20T02:08:00;9.35;;;3.25;;
13891;SDS011;7016;48.172;8.058;2023-07-20T02:10:25;7.00;;;3.65;;
13891;SDS011;7016;48.172;8.058;2023-07-20T02:12:51;5.90;;;3.30;;
13891;SDS011;7016;48.172;8.058;2023-07-20T02:15:17;5.93;;;3.00;;
13891;SDS011;7016;48.172;8.058;2023-07-20T02:17:43;5.47;;;3.10;;
13891;SDS011;7016;48.172;8.058;2023-07-20T02:20:09;8.13;;;3.60;;
13891;SDS011;7016;48.172;8.058;2023-07-20T02:22:38;5.15;;;2.97;;
13891;SDS011;7016;48.172;8.058;2023-07-20T02:25:05;7.20;;;3.35;;
13891;SDS011;7016;48.172;8.058;2023-07-20T02:27:32;10.50;;;4.10;;
13891;SDS011;7016;48.172;8.058;2023-07-20T02:29:58;10.65;;;3.80;;
13891;SDS011;7016;48.172;8.058;2023-07-20T02:32:24;7.35;;;3.13;;
13891;SDS011;7016;48.172;8.058;2023-07-20T02:34:50;4.45;;;3.17;;
13891;SDS011;7016;48.172;8.058;2023-07-20T02:37:16;8.35;;;3.38;;
13891;SDS011;7016;48.172;8.058;2023-07-20T02:39:42;7.28;;;3.45;;
13891;SDS011;7016;48.172;8.058;2023-07-20T02:42:08;11.00;;;3.65;;
13891;SDS011;7016;48.172;8.058;2023-07-20T02:44:33;7.72;;;3.70;;
13891;SDS011;7016;48.172;8.058;2023-07-20T02:46:59;6.72;;;3.88;;
13891;SDS011;7016;48.172;8.058;2023-07-20T02:49:25;6.10;;;3.67;;
13891;SDS011;7016;48.172;8.058;2023-07-20T02:51:51;6.55;;;2.92;;
13891;SDS011;7016;48.172;8.058;2023-07-20T02:54:17;8.57;;;3.45;;
13891;SDS011;7016;48.172;8.058;2023-07-20T02:56:43;7.25;;;3.75;;
13891;SDS011;7016;48.172;8.058;2023-07-20T02:59:09;6.13;;;3.50;;
13891;SDS011;7016;48.172;8.058;2023-07-20T03:01:34;7.68;;;3.38;;
13891;SDS011;7016;48.172;8.058;2023-07-20T03:04:00;6.70;;;3.60;;
13891;SDS011;7016;48.172;8.058;2023-07-20T03:06:25;9.25;;;3.50;;
13891;SDS011;7016;48.172;8.058;2023-07-20T03:08:51;6.47;;;3.65;;
13891;SDS011;7016;48.172;8.058;2023-07-20T03:11:18;8.40;;;3.03;;
13891;SDS011;7016;48.172;8.058;2023-07-20T03:13:44;8.48;;;3.60;;
13891;SDS011;7016;48.172;8.058;2023-07-20T03:16:11;11.93;;;3.95;;
13891;SDS011;7016;48.172;8.058;2023-07-20T03:18:40;8.52;;;3.97;;
13891;SDS011;7016;48.172;8.058;2023-07-20T03:21:07;8.88;;;3.90;;
13891;SDS011;7016;48.172;8.058;2023-07-20T03:23:33;10.35;;;3.75;;
13891;SDS011;7016;48.172;8.058;2023-07-20T03:25:59;5.90;;;3.95;;
13891;SDS011;7016;48.172;8.058;2023-07-20T03:28:25;8.15;;;3.63;;
13891;SDS011;7016;48.172;8.058;2023-07-20T03:30:55;8.55;;;3.97;;
13891;SDS011;7016;48.172;8.058;2023-07-20T03:33:25;11.15;;;3.83;;
13891;SDS011;7016;48.172;8.058;2023-07-20T03:35:53;7.20;;;3.63;;
13891;SDS011;7016;48.172;8.058;2023-07-20T03:38:20;7.18;;;3.50;;
13891;SDS011;7016;48.172;8.058;2023-07-20T03:40:53;5.05;;;3.50;;
13891;SDS011;7016;48.172;8.058;2023-07-20T03:43:23;9.73;;;3.92;;
13891;SDS011;7016;48.172;8.058;2023-07-20T03:45:50;9.30;;;3.67;;
13891;SDS011;7016;48.172;8.058;2023-07-20T03:48:17;11.82;;;3.80;;
13891;SDS011;7016;48.172;8.058;2023-07-20T03:50:47;7.25;;;3.88;;
13891;SDS011;7016;48.172;8.058;2023-07-20T03:53:15;7.03;;;3.30;;
13891;SDS011;7016;48.172;8.058;2023-07-20T03:55:44;6.32;;;3.60;;
13891;SDS011;7016;48.172;8.058;2023-07-20T03:58:14;12.02;;;3.17;;
13891;SDS011;7016;48.172;8.058;2023-07-20T04:00:43;5.72;;;3.40;;
13891;SDS011;7016;48.172;8.058;2023-07-20T04:03:13;7.47;;;3.60;;
13891;SDS011;7016;48.172;8.058;2023-07-20T04:05:39;7.00;;;3.60;;
13891;SDS011;7016;48.172;8.058;2023-07-20T04:08:04;6.13;;;3.25;;
13891;SDS011;7016;48.172;8.058;2023-07-20T04:10:30;5.75;;;3.42;;
13891;SDS011;7016;48.172;8.058;2023-07-20T04:12:56;9.55;;;3.88;;
13891;SDS011;7016;48.172;8.058;2023-07-20T04:15:21;7.95;;;4.10;;
13891;SDS011;7016;48.172;8.058;2023-07-20T04:17:47;7.50;;;3.53;;
13891;SDS011;7016;48.172;8.058;2023-07-20T04:20:13;7.50;;;3.45;;
13891;SDS011;7016;48.172;8.058;2023-07-20T04:22:38;7.75;;;3.65;;
13891;SDS011;7016;48.172;8.058;2023-07-20T04:25:04;7.50;;;3.42;;
13891;SDS011;7016;48.172;8.058;2023-07-20T04:27:30;9.07;;;3.65;;
13891;SDS011;7016;48.172;8.058;2023-07-20T04:29:58;7.38;;;3.95;;
13891;SDS011;7016;48.172;8.058;2023-07-20T04:32:25;7.20;;;3.63;;
13891;SDS011;7016;48.172;8.058;2023-07-20T04:34:50;5.72;;;3.40;;
13891;SDS011;7016;48.172;8.058;2023-07-20T04:37:16;8.50;;;3.72;;
13891;SDS011;7016;48.172;8.058;2023-07-20T04:39:42;7.53;;;3.65;;
13891;SDS011;7016;48.172;8.058;2023-07-20T04:42:07;5.47;;;3.60;;
13891;SDS011;7016;48.172;8.058;2023-07-20T04:44:33;6.07;;;3.30;;
13891;SDS011;7016;48.172;8.058;2023-07-20T04:46:59;7.28;;;3.22;;
13891;SDS011;7016;48.172;8.058;2023-07-20T04:49:24;8.13;;;3.30;;
13891;SDS011;7016;48.172;8.058;2023-07-20T04:51:50;11.27;;;3.55;;
13891;SDS011;7016;48.172;8.058;2023-07-20T04:54:16;8.68;;;3.40;;
13891;SDS011;7016;48.172;8.058;2023-07-20T04:56:43;5.65;;;3.42;;
13891;SDS011;7016;48.172;8.058;2023-07-20T04:59:09;7.53;;;3.53;;
13891;SDS011;7016;48.172;8.058;2023-07-20T05:01:34;5.90;;;2.97;;
13891;SDS011;7016;48.172;8.058;2023-07-20T05:04:00;5.85;;;3.10;;
13891;SDS011;7016;48.172;8.058;2023-07-20T05:06:26;7.05;;;3.55;;
13891;SDS011;7016;48.172;8.058;2023-07-20T05:08:52;5.10;;;3.40;;
13891;SDS011;7016;48.172;8.058;2023-07-20T05:11:17;7.82;;;3.80;;
13891;SDS011;7016;48.172;8.058;2023-07-20T05:13:43;9.52;;;3.63;;
13891;SDS011;7016;48.172;8.058;2023-07-20T05:16:09;5.90;;;3.40;;
13891;SDS011;7016;48.172;8.058;2023-07-20T05:18:34;10.15;;;3.60;;
13891;SDS011;7016;48.172;8.058;2023-07-20T05:21:00;7.97;;;3.53;;
13891;SDS011;7016;48.172;8.058;2023-07-20T05:23:26;10.50;;;3.67;;
13891;SDS011;7016;48.172;8.058;2023-07-20T05:25:58;5.63;;;3.45;;
13891;SDS011;7016;48.172;8.058;2023-07-20T05:28:24;9.38;;;3.53;;
13891;SDS011;7016;48.172;8.058;2023-07-20T05:30:53;6.50;;;3.08;;
13891;SDS011;7016;48.172;8.058;2023-07-20T05:33:20;6.95;;;3.42;;
13891;SDS011;7016;48.172;8.058;2023-07-20T05:35:46;4.35;;;3.08;;
13891;SDS011;7016;48.172;8.058;2023-07-20T05:38:12;9.63;;;3.30;;
13891;SDS011;7016;48.172;8.058;2023-07-20T05:40:41;8.00;;;3.50;;
13891;SDS011;7016;48.172;8.058;2023-07-20T05:43:09;5.57;;;3.40;;
13891;SDS011;7016;48.172;8.058;2023-07-20T05:45:36;6.35;;;3.33;;
13891;SDS011;7016;48.172;8.058;2023-07-20T05:48:02;8.73;;;3.38;;
13891;SDS011;7016;48.172;8.058;2023-07-20T05:50:28;6.32;;;3.20;;
13891;SDS011;7016;48.172;8.058;2023-07-20T05:52:53;6.82;;;3.65;;
13891;SDS011;7016;48.172;8.058;2023-07-20T05:55:20;5.80;;;3.08;;
13891;SDS011;7016;48.172;8.058;2023-07-20T05:57:46;10.25;;;3.50;;
13891;SDS011;7016;48.172;8.058;2023-07-20T06:00:13;6.75;;;3.40;;
13891;SDS011;7016;48.172;8.058;2023-07-20T06:02:39;7.82;;;3.30;;
13891;SDS011;7016;48.172;8.058;2023-07-20T06:05:06;5.43;;;2.90;;
13891;SDS011;7016;48.172;8.058;2023-07-20T06:07:38;6.45;;;3.35;;
13891;SDS011;7016;48.172;8.058;2023-07-20T06:10:04;8.05;;;3.80;;
13891;SDS011;7016;48.172;8.058;2023-07-20T06:12:31;9.38;;;4.15;;
13891;SDS011;7016;48.172;8.058;2023-07-20T06:15:01;7.18;;;3.70;;
13891;SDS011;7016;48.172;8.058;2023-07-20T06:17:28;7.35;;;4.13;;
13891;SDS011;7016;48.172;8.058;2023-07-20T06:19:54;6.05;;;3.45;;
13891;SDS011;7016;48.172;8.058;2023-07-20T06:22:19;6.38;;;3.28;;
13891;SDS011;7016;48.172;8.058;2023-07-20T06:24:45;8.20;;;3.75;;
13891;SDS011;7016;48.172;8.058;2023-07-20T06:27:11;10.32;;;3.30;;
13891;SDS011;7016;48.172;8.058;2023-07-20T06:29:37;8.07;;;3.53;;
13891;SDS011;7016;48.172;8.058;2023-07-20T06:32:03;6.45;;;3.55;;
13891;SDS011;7016;48.172;8.058;2023-07-20T06:34:30;9.48;;;3.72;;
13891;SDS011;7016;48.172;8.058;2023-07-20T06:36:55;6.05;;;3.53;;
13891;SDS011;7016;48.172;8.058;2023-07-20T06:39:21;6.63;;;3.30;;
13891;SDS011;7016;48.172;8.058;2023-07-20T06:41:47;12.82;;;3.92;;
13891;SDS011;7016;48.172;8.058;2023-07-20T06:44:13;9.02;;;3.22;;
13891;SDS011;7016;48.172;8.058;2023-07-20T06:46:38;12.95;;;3.83;;
13891;SDS011;7016;48.172;8.058;2023-07-20T06:49:06;8.93;;;3.40;;
13891;SDS011;7016;48.172;8.058;2023-07-20T06:51:33;9.10;;;3.55;;
13891;SDS011;7016;48.172;8.058;2023-07-20T06:53:58;8.52;;;3.45;;
13891;SDS011;7016;48.172;8.058;2023-07-20T06:56:24;7.07;;;3.70;;
13891;SDS011;7016;48.172;8.058;2023-07-20T06:58:49;10.93;;;3.80;;
13891;SDS011;7016;48.172;8.058;2023-07-20T07:01:15;7.82;;;4.60;;
13891;SDS011;7016;48.172;8.058;2023-07-20T07:03:41;14.05;;;6.25;;
13891;SDS011;7016;48.172;8.058;2023-07-20T07:06:09;12.23;;;5.40;;
13891;SDS011;7016;48.172;8.058;2023-07-20T07:08:35;11.40;;;5.70;;
13891;SDS011;7016;48.172;8.058;2023-07-20T07:11:01;19.50;;;8.93;;
13891;SDS011;7016;48.172;8.058;2023-07-20T07:13:26;19.05;;;9.35;;
13891;SDS011;7016;48.172;8.058;2023-07-20T07:15:52;22.65;;;8.98;;
13891;SDS011;7016;48.172;8.058;2023-07-20T07:18:18;13.32;;;6.93;;
13891;SDS011;7016;48.172;8.058;2023-07-20T07:20:50;17.83;;;7.15;;
13891;SDS011;7016;48.172;8.058;2023-07-20T07:23:16;13.48;;;6.93;;
13891;SDS011;7016;48.172;8.058;2023-07-20T07:25:42;13.45;;;6.28;;
13891;SDS011;7016;48.172;8.058;2023-07-20T07:28:07;15.30;;;6.32;;
13891;SDS011;7016;48.172;8.058;2023-07-20T07:30:33;10.88;;;4.80;;
13891;SDS011;7016;48.172;8.058;2023-07-20T07:32:58;9.18;;;4.43;;
13891;SDS011;7016;48.172;8.058;2023-07-20T07:35:24;8.73;;;4.35;;
13891;SDS011;7016;48.172;8.058;2023-07-20T07:37:50;7.70;;;3.58;;
13891;SDS011;7016;48.172;8.058;2023-07-20T07:40:16;8.27;;;3.65;;
13891;SDS011;7016;48.172;8.058;2023-07-20T07:42:42;10.68;;;3.47;;
13891;SDS011;7016;48.172;8.058;2023-07-20T07:45:07;11.00;;;3.28;;
13891;SDS011;7016;48.172;8.058;2023-07-20T07:47:33;12.60;;;3.58;;
13891;SDS011;7016;48.172;8.058;2023-07-20T07:49:59;6.13;;;3.40;;
13891;SDS011;7016;48.172;8.058;2023-07-20T07:52:24;14.32;;;3.60;;
13891;SDS011;7016;48.172;8.058;2023-07-20T07:54:50;11.10;;;3.53;;
13891;SDS011;7016;48.172;8.058;2023-07-20T07:57:16;7.43;;;3.72;;
13891;SDS011;7016;48.172;8.058;2023-07-20T07:59:41;11.32;;;3.85;;
13891;SDS011;7016;48.172;8.058;2023-07-20T08:02:07;6.95;;;3.13;;
13891;SDS011;7016;48.172;8.058;2023-07-20T08:04:33;12.07;;;3.60;;
13891;SDS011;7016;48.172;8.058;2023-07-20T08:06:59;9.68;;;3.72;;
13891;SDS011;7016;48.172;8.058;2023-07-20T08:09:25;8.13;;;3.70;;
13891;SDS011;7016;48.172;8.058;2023-07-20T08:11:50;7.40;;;3.65;;
13891;SDS011;7016;48.172;8.058;2023-07-20T08:14:16;8.35;;;3.40;;
13891;SDS011;7016;48.172;8.058;2023-07-20T08:16:42;8.73;;;3.63;;
13891;SDS011;7016;48.172;8.058;2023-07-20T08:19:08;10.70;;;3.50;;
13891;SDS011;7016;48.172;8.058;2023-07-20T08:21:33;9.55;;;3.70;;
13891;SDS011;7016;48.172;8.058;2023-07-20T08:23:59;9.43;;;3.83;;
13891;SDS011;7016;48.172;8.058;2023-07-20T08:26:25;9.98;;;3.40;;
13891;SDS011;7016;48.172;8.058;2023-07-20T08:28:51;7.03;;;3.22;;
13891;SDS011;7016;48.172;8.058;2023-07-20T08:31:16;5.10;;;3.03;;
13891;SDS011;7016;48.172;8.058;2023-07-20T08:33:43;9.20;;;2.92;;
13891;SDS011;7016;48.172;8.058;2023-07-20T08:36:10;5.43;;;3.10;;
13891;SDS011;7016;48.172;8.058;2023-07-20T08:38:35;6.30;;;3.08;;
13891;SDS011;7016;48.172;8.058;2023-07-20T08:41:01;6.25;;;2.80;;
13891;SDS011;7016;48.172;8.058;2023-07-20T08:43:27;5.93;;;2.50;;
13891;SDS011;7016;48.172;8.058;2023-07-20T08:45:55;6.80;;;2.92;;
13891;SDS011;7016;48.172;8.058;2023-07-20T08:48:22;6.30;;;3.35;;
13891;SDS011;7016;48.172;8.058;2023-07-20T08:50:52;10.40;;;3.38;;
13891;SDS011;7016;48.172;8.058;2023-07-20T08:53:19;8.13;;;3.38;;
13891;SDS011;7016;48.172;8.058;2023-07-20T08:55:45;7.45;;;3.05;;
13891;SDS011;7016;48.172;8.058;2023-07-20T08:58:15;4.60;;;2.10;;
13891;SDS011;7016;48.172;8.058;2023-07-20T09:00:41;7.03;;;2.75;;
13891;SDS011;7016;48.172;8.058;2023-07-20T09:03:07;11.75;;;2.50;;
13891;SDS011;7016;48.172;8.058;2023-07-20T09:05:33;4.57;;;2.40;;
13891;SDS011;7016;48.172;8.058;2023-07-20T09:08:00;5.55;;;2.58;;
13891;SDS011;7016;48.172;8.058;2023-07-20T09:10:28;10.23;;;2.60;;
13891;SDS011;7016;48.172;8.058;2023-07-20T09:12:54;4.72;;;2.10;;
13891;SDS011;7016;48.172;8.058;2023-07-20T09:15:20;8.40;;;2.20;;
13891;SDS011;7016;48.172;8.058;2023-07-20T09:17:47;6.40;;;2.25;;
13891;SDS011;7016;48.172;8.058;2023-07-20T09:20:14;5.07;;;2.10;;
13891;SDS011;7016;48.172;8.058;2023-07-20T09:22:40;3.47;;;2.20;;
13891;SDS011;7016;48.172;8.058;2023-07-20T09:25:11;6.85;;;2.40;;
13891;SDS011;7016;48.172;8.058;2023-07-20T09:27:48;5.57;;;2.50;;
13891;SDS011;7016;48.172;8.058;2023-07-20T09:30:15;4.47;;;2.17;;
13891;SDS011;7016;48.172;8.058;2023-07-20T09:32:45;5.35;;;2.58;;
13891;SDS011;7016;48.172;8.058;2023-07-20T09:35:14;4.50;;;2.30;;
13891;SDS011;7016;48.172;8.058;2023-07-20T09:37:40;6.65;;;2.55;;
13891;SDS011;7016;48.172;8.058;2023-07-20T09:40:14;9.90;;;2.78;;
13891;SDS011;7016;48.172;8.058;2023-07-20T09:42:41;3.92;;;2.22;;
13891;SDS011;7016;48.172;8.058;2023-07-20T09:45:07;12.10;;;2.42;;
13891;SDS011;7016;48.172;8.058;2023-07-20T09:47:35;5.10;;;2.55;;
13891;SDS011;7016;48.172;8.058;2023-07-20T09:50:03;5.47;;;2.33;;
13891;SDS011;7016;48.172;8.058;2023-07-20T09:52:29;4.15;;;2.60;;
13891;SDS011;7016;48.172;8.058;2023-07-20T09:54:54;4.47;;;2.42;;
13891;SDS011;7016;48.172;8.058;2023-07-20T09:57:20;4.20;;;2.22;;
13891;SDS011;7016;48.172;8.058;2023-07-20T09:59:47;5.35;;;2.10;;
13891;SDS011;7016;48.172;8.058;2023-07-20T10:02:20;8.48;;;2.28;;
13891;SDS011;7016;48.172;8.058;2023-07-20T10:04:52;5.63;;;2.53;;
13891;SDS011;7016;48.172;8.058;2023-07-20T10:07:19;5.78;;;2.20;;
13891;SDS011;7016;48.172;8.058;2023-07-20T10:09:48;3.55;;;1.88;;
13891;SDS011;7016;48.172;8.058;2023-07-20T10:12:17;4.93;;;2.10;;
13891;SDS011;7016;48.172;8.058;2023-07-20T10:14:54;4.97;;;2.05;;
13891;SDS011;7016;48.172;8.058;2023-07-20T10:17:35;3.92;;;2.35;;
13891;SDS011;7016;48.172;8.058;2023-07-20T10:20:04;7.45;;;1.95;;
13891;SDS011;7016;48.172;8.058;2023-07-20T10:22:34;7.63;;;2.30;;
13891;SDS011;7016;48.172;8.058;2023-07-20T10:25:01;4.47;;;2.15;;
13891;SDS011;7016;48.172;8.058;2023-07-20T10:27:27;3.15;;;1.80;;
13891;SDS011;7016;48.172;8.058;2023-07-20T10:29:53;6.97;;;2.30;;
13891;SDS011;7016;48.172;8.058;2023-07-20T10:32:20;4.72;;;2.08;;
13891;SDS011;7016;48.172;8.058;2023-07-20T10:34:53;5.95;;;2.22;;
13891;SDS011;7016;48.172;8.058;2023-07-20T10:40:33;8.65;;;2.28;;
13891;SDS011;7016;48.172;8.058;2023-07-20T10:43:04;3.47;;;2.05;;
13891;SDS011;7016;48.172;8.058;2023-07-20T10:53:35;7.57;;;2.25;;
13891;SDS011;7016;48.172;8.058;2023-07-20T10:56:14;4.82;;;2.40;;
13891;SDS011;7016;48.172;8.058;2023-07-20T10:58:44;7.10;;;2.20;;
13891;SDS011;7016;48.172;8.058;2023-07-20T11:01:12;5.53;;;2.20;;
13891;SDS011;7016;48.172;8.058;2023-07-20T11:03:39;7.30;;;2.40;;
13891;SDS011;7016;48.172;8.058;2023-07-20T11:08:56;4.05;;;2.20;;
13891;SDS011;7016;48.172;8.058;2023-07-20T11:11:36;7.03;;;2.10;;
13891;SDS011;7016;48.172;8.058;2023-07-20T11:14:07;3.90;;;1.80;;
13891;SDS011;7016;48.172;8.058;2023-07-20T11:16:46;4.72;;;2.08;;
13891;SDS011;7016;48.172;8.058;2023-07-20T11:19:14;3.97;;;2.03;;
13891;SDS011;7016;48.172;8.058;2023-07-20T11:21:43;4.85;;;2.35;;
13891;SDS011;7016;48.172;8.058;2023-07-20T11:24:10;3.65;;;2.17;;
13891;SDS011;7016;48.172;8.058;2023-07-20T11:26:54;3.08;;;2.08;;
13891;SDS011;7016;48.172;8.058;2023-07-20T11:29:20;5.75;;;2.30;;
13891;SDS011;7016;48.172;8.058;2023-07-20T11:31:48;4.80;;;2.38;;
13891;SDS011;7016;48.172;8.058;2023-07-20T11:34:15;5.50;;;2.08;;
13891;SDS011;7016;48.172;8.058;2023-07-20T11:36:45;4.30;;;2.15;;
13891;SDS011;7016;48.172;8.058;2023-07-20T11:39:13;6.40;;;2.20;;
13891;SDS011;7016;48.172;8.058;2023-07-20T11:41:43;4.50;;;2.28;;
13891;SDS011;7016;48.172;8.058;2023-07-20T11:44:12;4.30;;;2.10;;
13891;SDS011;7016;48.172;8.058;2023-07-20T11:46:40;4.40;;;2.20;;
13891;SDS011;7016;48.172;8.058;2023-07-20T11:49:07;4.25;;;2.10;;
13891;SDS011;7016;48.172;8.058;2023-07-20T11:51:33;4.03;;;2.22;;
13891;SDS011;7016;48.172;8.058;2023-07-20T11:54:00;4.55;;;2.40;;
13891;SDS011;7016;48.172;8.058;2023-07-20T11:56:27;5.43;;;1.98;;
13891;SDS011;7016;48.172;8.058;2023-07-20T11:59:00;7.10;;;2.00;;
13891;SDS011;7016;48.172;8.058;2023-07-20T12:01:28;4.18;;;2.08;;
13891;SDS011;7016;48.172;8.058;2023-07-20T12:03:56;6.10;;;2.22;;
13891;SDS011;7016;48.172;8.058;2023-07-20T12:06:27;3.03;;;2.00;;
13891;SDS011;7016;48.172;8.058;2023-07-20T12:08:56;2.88;;;1.88;;
13891;SDS011;7016;48.172;8.058;2023-07-20T12:11:36;4.30;;;2.08;;
13891;SDS011;7016;48.172;8.058;2023-07-20T12:14:06;5.00;;;2.10;;
13891;SDS011;7016;48.172;8.058;2023-07-20T12:16:33;7.03;;;2.00;;
13891;SDS011;7016;48.172;8.058;2023-07-20T12:19:00;5.43;;;2.17;;
13891;SDS011;7016;48.172;8.058;2023-07-20T12:21:30;3.38;;;2.03;;
13891;SDS011;7016;48.172;8.058;2023-07-20T12:23:57;4.15;;;2.03;;
13891;SDS011;7016;48.172;8.058;2023-07-20T12:26:23;4.97;;;2.38;;
13891;SDS011;7016;48.172;8.058;2023-07-20T12:28:50;3.83;;;1.63;;
13891;SDS011;7016;48.172;8.058;2023-07-20T12:31:16;4.65;;;2.30;;
13891;SDS011;7016;48.172;8.058;2023-07-20T12:33:42;3.45;;;2.00;;
13891;SDS011;7016;48.172;8.058;2023-07-20T12:36:08;3.67;;;1.90;;
13891;SDS011;7016;48.172;8.058;2023-07-20T12:38:35;3.28;;;1.80;;
13891;SDS011;7016;48.172;8.058;2023-07-20T12:41:01;6.10;;;2.00;;
13891;SDS011;7016;48.172;8.058;2023-07-20T12:43:28;3.85;;;2.10;;
13891;SDS011;7016;48.172;8.058;2023-07-20T12:45:54;4.45;;;2.20;;
13891;SDS011;7016;48.172;8.058;2023-07-20T12:48:21;3.50;;;2.03;;
13891;SDS011;7016;48.172;8.058;2023-07-20T12:50:47;4.32;;;1.67;;
13891;SDS011;7016;48.172;8.058;2023-07-20T12:53:12;4.60;;;2.42;;
13891;SDS011;7016;48.172;8.058;2023-07-20T12:55:38;4.85;;;2.00;;
13891;SDS011;7016;48.172;8.058;2023-07-20T12:58:04;3.58;;;1.83;;
13891;SDS011;7016;48.172;8.058;2023-07-20T13:00:30;3.70;;;1.90;;
13891;SDS011;7016;48.172;8.058;2023-07-20T13:02:57;8.25;;;1.90;;
13891;SDS011;7016;48.172;8.058;2023-07-20T13:05:23;4.60;;;2.10;;
13891;SDS011;7016;48.172;8.058;2023-07-20T13:07:48;4.22;;;2.13;;
13891;SDS011;7016;48.172;8.058;2023-07-20T13:10:14;2.85;;;1.80;;
13891;SDS011;7016;48.172;8.058;2023-07-20T13:12:40;3.92;;;2.13;;
13891;SDS011;7016;48.172;8.058;2023-07-20T13:15:07;5.70;;;2.17;;
13891;SDS011;7016;48.172;8.058;2023-07-20T13:17:38;5.78;;;1.95;;
13891;SDS011;7016;48.172;8.058;2023-07-20T13:20:05;7.00;;;2.10;;
13891;SDS011;7016;48.172;8.058;2023-07-20T13:22:33;4.45;;;2.00;;
13891;SDS011;7016;48.172;8.058;2023-07-20T13:24:59;7.53;;;2.10;;
13891;SDS011;7016;48.172;8.058;2023-07-20T13:27:25;2.85;;;1.98;;
13891;SDS011;7016;48.172;8.058;2023-07-20T13:29:52;6.13;;;2.08;;
13891;SDS011;7016;48.172;8.058;2023-07-20T13:32:18;3.53;;;2.00;;
13891;SDS011;7016;48.172;8.058;2023-07-20T13:34:44;8.43;;;2.42;;
13891;SDS011;7016;48.172;8.058;2023-07-20T13:37:10;4.15;;;2.10;;
13891;SDS011;7016;48.172;8.058;2023-07-20T13:39:37;3.38;;;1.80;;
13891;SDS011;7016;48.172;8.058;2023-07-20T13:42:03;5.60;;;2.00;;
13891;SDS011;7016;48.172;8.058;2023-07-20T13:44:33;4.05;;;2.00;;
13891;SDS011;7016;48.172;8.058;2023-07-20T13:47:02;4.60;;;1.92;;
13891;SDS011;7016;48.172;8.058;2023-07-20T13:49:28;4.40;;;2.00;;
13891;SDS011;7016;48.172;8.058;2023-07-20T13:51:54;6.07;;;1.85;;
13891;SDS011;7016;48.172;8.058;2023-07-20T13:54:20;6.07;;;1.75;;
13891;SDS011;7016;48.172;8.058;2023-07-20T13:56:45;4.75;;;2.03;;
13891;SDS011;7016;48.172;8.058;2023-07-20T13:59:11;4.55;;;2.20;;
13891;SDS011;7016;48.172;8.058;2023-07-20T14:01:37;4.00;;;1.80;;
13891;SDS011;7016;48.172;8.058;2023-07-20T14:04:02;7.93;;;2.08;;
13891;SDS011;7016;48.172;8.058;2023-07-20T14:06:32;3.42;;;1.92;;
13891;SDS011;7016;48.172;8.058;2023-07-20T14:08:58;3.58;;;1.83;;
13891;SDS011;7016;48.172;8.058;2023-07-20T14:11:25;6.28;;;1.98;;
13891;SDS011;7016;48.172;8.058;2023-07-20T14:13:51;3.22;;;1.83;;
13891;SDS011;7016;48.172;8.058;2023-07-20T14:16:21;4.13;;;1.98;;
13891;SDS011;7016;48.172;8.058;2023-07-20T14:18:47;4.22;;;2.25;;
13891;SDS011;7016;48.172;8.058;2023-07-20T14:21:13;5.32;;;2.00;;
13891;SDS011;7016;48.172;8.058;2023-07-20T14:23:47;5.85;;;1.85;;
13891;SDS011;7016;48.172;8.058;2023-07-20T14:26:14;3.72;;;2.03;;
13891;SDS011;7016;48.172;8.058;2023-07-20T14:28:41;4.43;;;2.08;;
13891;SDS011;7016;48.172;8.058;2023-07-20T14:31:07;4.43;;;2.05;;
13891;SDS011;7016;48.172;8.058;2023-07-20T14:33:33;3.95;;;1.92;;
13891;SDS011;7016;48.172;8.058;2023-07-20T14:35:59;4.85;;;1.88;;
13891;SDS011;7016;48.172;8.058;2023-07-20T14:38:27;4.15;;;2.00;;
13891;SDS011;7016;48.172;8.058;2023-07-20T14:40:53;8.25;;;2.22;;
13891;SDS011;7016;48.172;8.058;2023-07-20T14:43:19;3.00;;;1.75;;
13891;SDS011;7016;48.172;8.058;2023-07-20T14:45:44;4.43;;;1.83;;
13891;SDS011;7016;48.172;8.058;2023-07-20T14:48:10;4.60;;;2.28;;
13891;SDS011;7016;48.172;8.058;2023-07-20T14:50:36;3.58;;;2.00;;
13891;SDS011;7016;48.172;8.058;2023-07-20T14:53:02;3.55;;;2.20;;
13891;SDS011;7016;48.172;8.058;2023-07-20T14:55:28;4.50;;;1.88;;
13891;SDS011;7016;48.172;8.058;2023-07-20T14:57:53;2.95;;;1.70;;
13891;SDS011;7016;48.172;8.058;2023-07-20T15:00:19;5.72;;;2.05;;
13891;SDS011;7016;48.172;8.058;2023-07-20T15:02:45;6.03;;;2.05;;
13891;SDS011;7016;48.172;8.058;2023-07-20T15:05:11;3.60;;;2.05;;
13891;SDS011;7016;48.172;8.058;2023-07-20T15:07:37;5.57;;;1.70;;
13891;SDS011;7016;48.172;8.058;2023-07-20T15:10:03;5.95;;;2.05;;
13891;SDS011;7016;48.172;8.058;2023-07-20T15:12:32;7.50;;;1.95;;
13891;SDS011;7016;48.172;8.058;2023-07-20T15:15:04;2.75;;;1.70;;
13891;SDS011;7016;48.172;8.058;2023-07-20T15:17:31;6.28;;;1.98;;
13891;SDS011;7016;48.172;8.058;2023-07-20T15:19:57;3.38;;;2.20;;
13891;SDS011;7016;48.172;8.058;2023-07-20T15:22:23;4.88;;;1.83;;